createdAt,value
2022-12-25T00:02:35.603Z,8.40
2022-12-25T00:05:03.779Z,8.40
2022-12-25T00:07:33.342Z,8.50
2022-12-25T00:10:01.459Z,8.50
2022-12-25T00:12:32.356Z,8.50
2022-12-25T00:15:02.120Z,8.40
2022-12-25T00:17:30.223Z,8.40
2022-12-25T00:19:58.151Z,8.40
2022-12-25T00:22:26.197Z,8.40
2022-12-25T00:24:54.579Z,8.50
2022-12-25T00:27:22.890Z,8.50
2022-12-25T00:29:50.944Z,8.50
2022-12-25T00:32:20.834Z,8.50
2022-12-25T00:34:50.013Z,8.50
2022-12-25T00:37:18.029Z,8.50
2022-12-25T00:39:46.055Z,8.50
2022-12-25T00:42:25.907Z,8.60
2022-12-25T00:44:57.363Z,8.70
2022-12-25T00:47:26.815Z,8.60
2022-12-25T00:49:54.914Z,8.70
2022-12-25T00:52:23.158Z,8.80
2022-12-25T00:54:51.847Z,8.70
2022-12-25T00:57:19.751Z,8.80
2022-12-25T00:59:49.767Z,8.90
2022-12-25T01:02:26.867Z,8.90
2022-12-25T01:04:58.048Z,8.90
2022-12-25T01:07:28.141Z,9.10
2022-12-25T01:10:13.548Z,9.10
2022-12-25T01:12:43.717Z,9.20
2022-12-25T01:15:14.235Z,9.10
2022-12-25T01:17:43.206Z,9.00
2022-12-25T01:20:15.212Z,9.00
2022-12-25T01:22:46.581Z,9.00
2022-12-25T01:25:14.872Z,9.00
2022-12-25T01:27:47.107Z,9.00
2022-12-25T01:30:18.251Z,9.00
2022-12-25T01:32:48.161Z,9.00
2022-12-25T01:35:19.420Z,9.00
2022-12-25T01:37:50.297Z,9.00
2022-12-25T01:40:21.988Z,9.00
2022-12-25T01:42:50.893Z,8.90
2022-12-25T01:45:39.460Z,8.90
2022-12-25T01:48:15.772Z,8.80
2022-12-25T01:50:50.731Z,8.80
2022-12-25T01:53:18.769Z,8.80
2022-12-25T01:55:49.487Z,8.80
2022-12-25T01:58:18.219Z,8.80
2022-12-25T02:00:47.315Z,8.80
2022-12-25T02:03:15.543Z,8.90
2022-12-25T02:05:46.905Z,8.90
2022-12-25T02:08:21.651Z,9.00
2022-12-25T02:10:49.999Z,9.10
2022-12-25T02:13:23.282Z,9.10
2022-12-25T02:16:00.858Z,9.00
2022-12-25T02:18:39.775Z,9.10
2022-12-25T02:21:27.405Z,9.20
2022-12-25T02:24:35.463Z,9.20
2022-12-25T02:27:27.389Z,9.20
2022-12-25T02:30:01.750Z,9.30
2022-12-25T02:32:35.830Z,9.30
2022-12-25T02:35:15.265Z,9.30
2022-12-25T02:37:48.337Z,9.20
2022-12-25T02:40:19.666Z,9.10
2022-12-25T02:43:09.576Z,9.20
2022-12-25T02:46:00.720Z,9.20
2022-12-25T02:49:01.671Z,9.10
2022-12-25T02:51:49.957Z,9.00
2022-12-25T02:54:39.239Z,8.90
2022-12-25T02:57:29.171Z,9.00
2022-12-25T03:00:18.211Z,9.00
2022-12-25T03:03:08.236Z,9.10
2022-12-25T03:05:59.492Z,9.10
2022-12-25T03:08:31.635Z,9.10
2022-12-25T03:11:22.352Z,9.20
2022-12-25T03:13:53.186Z,9.10
2022-12-25T03:16:54.444Z,9.10
2022-12-25T03:19:46.886Z,9.10
2022-12-25T03:22:38.131Z,9.10
2022-12-25T03:25:24.907Z,9.10
2022-12-25T03:27:55.456Z,9.20
2022-12-25T03:30:42.365Z,9.20
2022-12-25T03:33:43.897Z,9.10
2022-12-25T03:36:15.387Z,9.10
2022-12-25T03:39:21.697Z,9.00
2022-12-25T03:42:11.443Z,9.00
2022-12-25T03:45:09.911Z,9.10
2022-12-25T03:48:11.563Z,9.10
2022-12-25T03:51:01.151Z,9.10
2022-12-25T03:53:58.208Z,9.10
2022-12-25T03:56:44.393Z,9.10
2022-12-25T03:59:29.876Z,9.10
2022-12-25T04:02:15.675Z,9.10
2022-12-25T04:05:01.267Z,9.10
2022-12-25T04:07:46.877Z,9.10
2022-12-25T04:10:33.846Z,9.30
2022-12-25T04:13:19.186Z,9.40
2022-12-25T04:16:04.692Z,9.40
2022-12-25T04:18:50.089Z,9.30
2022-12-25T04:21:35.393Z,9.20
2022-12-25T04:24:20.803Z,9.20
2022-12-25T04:27:09.730Z,9.10
2022-12-25T04:30:01.274Z,9.10
2022-12-25T04:32:46.612Z,9.00
2022-12-25T04:35:32.482Z,9.00
2022-12-25T04:38:00.462Z,8.90
2022-12-25T04:40:28.782Z,8.90
2022-12-25T04:43:00.598Z,8.90
2022-12-25T04:45:29.829Z,8.90
2022-12-25T04:48:02.533Z,8.90
2022-12-25T04:50:32.627Z,8.80
2022-12-25T04:53:00.545Z,8.90
2022-12-25T04:55:28.887Z,8.90
2022-12-25T04:57:59.307Z,8.90
2022-12-25T05:00:30.611Z,8.90
2022-12-25T05:02:59.475Z,8.90
2022-12-25T05:05:30.569Z,9.00
2022-12-25T05:07:58.959Z,9.00
2022-12-25T05:10:29.693Z,9.00
2022-12-25T05:13:02.373Z,9.00
2022-12-25T05:15:30.514Z,9.00
2022-12-25T05:17:58.987Z,9.00
2022-12-25T05:20:32.161Z,9.00
2022-12-25T05:23:05.303Z,9.00
2022-12-25T05:25:33.172Z,9.00
2022-12-25T05:28:02.567Z,9.10
2022-12-25T05:30:30.801Z,9.10
2022-12-25T05:33:00.628Z,9.10
2022-12-25T05:35:28.606Z,9.20
2022-12-25T05:37:56.556Z,9.20
2022-12-25T05:40:26.488Z,9.20
2022-12-25T05:42:54.427Z,9.20
2022-12-25T05:45:25.169Z,9.20
2022-12-25T05:47:53.764Z,9.20
2022-12-25T05:50:24.675Z,9.20
2022-12-25T05:52:52.732Z,9.20
2022-12-25T05:55:23.848Z,9.10
2022-12-25T05:57:55.033Z,9.10
2022-12-25T06:00:27.177Z,9.10
2022-12-25T06:02:55.112Z,9.10
2022-12-25T06:05:23.296Z,9.10
2022-12-25T06:07:51.490Z,9.10
2022-12-25T06:10:19.935Z,9.10
2022-12-25T06:12:50.732Z,9.10
2022-12-25T06:15:20.055Z,9.10
2022-12-25T06:17:52.390Z,9.00
2022-12-25T06:20:22.387Z,8.90
2022-12-25T06:22:50.518Z,8.90
2022-12-25T06:25:18.993Z,8.90
2022-12-25T06:27:46.934Z,8.80
2022-12-25T06:30:15.532Z,8.80
2022-12-25T06:32:43.759Z,8.80
2022-12-25T06:35:17.489Z,8.80
2022-12-25T06:37:47.242Z,8.80
2022-12-25T06:40:17.959Z,8.80
2022-12-25T06:42:46.243Z,8.90
2022-12-25T06:45:14.526Z,8.90
2022-12-25T06:47:45.296Z,8.90
2022-12-25T06:50:15.874Z,8.90
2022-12-25T06:52:43.894Z,8.80
2022-12-25T06:55:11.860Z,8.80
2022-12-25T06:57:42.788Z,8.80
2022-12-25T07:00:11.930Z,8.80
2022-12-25T07:02:51.325Z,8.80
2022-12-25T07:05:24.653Z,8.80
2022-12-25T07:07:52.811Z,8.80
2022-12-25T07:10:23.805Z,8.80
2022-12-25T07:12:53.722Z,8.70
2022-12-25T07:15:22.052Z,8.70
2022-12-25T07:17:50.053Z,8.70
2022-12-25T07:20:18.141Z,8.70
2022-12-25T07:22:47.458Z,8.70
2022-12-25T07:25:17.570Z,8.70
2022-12-25T07:27:45.737Z,8.70
2022-12-25T07:30:14.641Z,8.80
2022-12-25T07:32:49.864Z,8.80
2022-12-25T07:35:19.579Z,8.80
2022-12-25T07:37:49.015Z,8.80
2022-12-25T07:40:17.146Z,8.80
2022-12-25T07:42:45.398Z,8.90
2022-12-25T07:45:13.424Z,8.90
2022-12-25T07:47:41.609Z,8.80
2022-12-25T07:50:10.407Z,8.80
2022-12-25T07:52:43.565Z,8.80
2022-12-25T07:55:13.486Z,8.80
2022-12-25T07:57:41.441Z,8.80
2022-12-25T08:00:10.622Z,8.80
2022-12-25T08:02:38.862Z,8.80
2022-12-25T08:05:08.208Z,8.90
2022-12-25T08:07:36.722Z,8.90
2022-12-25T08:10:05.437Z,9.00
2022-12-25T08:12:34.802Z,9.00
2022-12-25T08:15:02.844Z,9.10
2022-12-25T08:17:30.980Z,9.10
2022-12-25T08:19:58.948Z,9.00
2022-12-25T08:22:27.095Z,9.00
2022-12-25T08:24:57.833Z,9.00
2022-12-25T08:27:25.916Z,9.00
2022-12-25T08:29:55.283Z,9.00
2022-12-25T08:32:26.125Z,9.00
2022-12-25T08:34:54.077Z,9.00
2022-12-25T08:37:21.981Z,9.00
2022-12-25T08:39:50.062Z,9.00
2022-12-25T08:42:18.368Z,9.10
2022-12-25T08:44:46.477Z,9.40
2022-12-25T08:47:16.261Z,9.60
2022-12-25T08:49:46.436Z,9.80
2022-12-25T08:52:15.373Z,9.90
2022-12-25T08:54:44.525Z,9.90
2022-12-25T08:57:15.445Z,9.90
2022-12-25T08:59:46.930Z,9.80
2022-12-25T09:02:22.844Z,9.80
2022-12-25T09:04:51.487Z,9.70
2022-12-25T09:07:21.004Z,9.70
2022-12-25T09:09:51.780Z,9.70
2022-12-25T09:12:19.947Z,9.70
2022-12-25T09:14:49.892Z,9.80
2022-12-25T09:17:19.592Z,9.80
2022-12-25T09:20:07.486Z,9.80
2022-12-25T09:22:37.989Z,9.90
2022-12-25T09:25:08.978Z,9.80
2022-12-25T09:27:38.319Z,10.00
2022-12-25T09:30:07.907Z,10.10
2022-12-25T09:32:40.403Z,10.10
2022-12-25T09:35:09.213Z,10.10
2022-12-25T09:37:41.553Z,10.10
2022-12-25T09:40:12.089Z,10.20
2022-12-25T09:42:40.295Z,10.20
2022-12-25T09:45:17.547Z,10.10
2022-12-25T09:47:49.633Z,10.10
2022-12-25T09:50:23.292Z,10.10
2022-12-25T09:52:56.232Z,10.00
2022-12-25T09:55:26.482Z,10.00
2022-12-25T09:57:57.058Z,10.00
2022-12-25T10:00:26.356Z,9.90
2022-12-25T10:03:13.161Z,9.90
2022-12-25T10:06:03.574Z,9.80
2022-12-25T10:08:50.961Z,9.80
2022-12-25T10:11:27.664Z,9.80
2022-12-25T10:14:16.092Z,9.80
2022-12-25T10:16:56.860Z,9.80
2022-12-25T10:19:36.284Z,9.80
2022-12-25T10:22:13.407Z,9.70
2022-12-25T10:24:46.844Z,9.70
2022-12-25T10:27:19.790Z,9.70
2022-12-25T10:29:54.327Z,9.70
2022-12-25T10:32:22.927Z,9.70
2022-12-25T10:34:53.057Z,9.80
2022-12-25T10:37:21.088Z,9.80
2022-12-25T10:39:49.133Z,9.80
2022-12-25T10:42:32.360Z,9.90
2022-12-25T10:45:04.572Z,9.90
2022-12-25T10:47:34.727Z,10.00
2022-12-25T10:50:10.243Z,10.10
2022-12-25T10:52:51.927Z,10.20
2022-12-25T10:55:26.595Z,10.30
2022-12-25T10:58:02.986Z,10.30
2022-12-25T11:00:32.643Z,10.40
2022-12-25T11:03:01.176Z,10.40
2022-12-25T11:05:32.749Z,10.50
2022-12-25T11:08:03.628Z,10.50
2022-12-25T11:10:36.083Z,10.50
2022-12-25T11:13:07.646Z,10.60
2022-12-25T11:15:39.172Z,10.80
2022-12-25T11:18:20.978Z,10.90
2022-12-25T11:20:52.226Z,11.00
2022-12-25T11:23:24.573Z,11.00
2022-12-25T11:26:00.887Z,11.10
2022-12-25T11:28:30.468Z,11.10
2022-12-25T11:31:03.914Z,11.00
2022-12-25T11:33:39.628Z,10.90
2022-12-25T11:36:17.007Z,10.90
2022-12-25T11:38:44.873Z,11.00
2022-12-25T11:41:20.409Z,11.10
2022-12-25T11:43:54.934Z,11.10
2022-12-25T11:46:28.505Z,11.20
2022-12-25T11:49:06.511Z,11.20
2022-12-25T11:51:41.411Z,11.20
2022-12-25T11:54:21.754Z,11.40
2022-12-25T11:56:51.061Z,11.50
2022-12-25T11:59:24.220Z,11.40
2022-12-25T12:01:59.379Z,11.30
2022-12-25T12:04:38.471Z,11.20
2022-12-25T12:07:18.366Z,11.20
2022-12-25T12:09:51.378Z,11.10
2022-12-25T12:12:27.878Z,11.10
2022-12-25T12:15:01.929Z,11.00
2022-12-25T12:17:30.171Z,11.00
2022-12-25T12:19:58.918Z,11.00
2022-12-25T12:22:32.176Z,11.00
2022-12-25T12:25:02.745Z,11.00
2022-12-25T12:27:35.820Z,11.10
2022-12-25T12:30:05.279Z,11.10
2022-12-25T12:32:43.843Z,11.20
2022-12-25T12:35:20.064Z,11.20
2022-12-25T12:37:53.559Z,11.20
2022-12-25T12:40:33.474Z,11.30
2022-12-25T12:43:02.676Z,11.30
2022-12-25T12:45:34.138Z,11.20
2022-12-25T12:48:03.096Z,11.30
2022-12-25T12:50:39.732Z,11.30
2022-12-25T12:53:30.397Z,11.30
2022-12-25T12:56:09.467Z,11.30
2022-12-25T12:58:45.031Z,11.30
2022-12-25T13:01:22.209Z,11.30
2022-12-25T13:04:11.487Z,11.30
2022-12-25T13:06:45.502Z,11.30
2022-12-25T13:09:25.842Z,11.30
2022-12-25T13:11:54.416Z,11.30
2022-12-25T13:14:28.184Z,11.30
2022-12-25T13:16:56.445Z,11.40
2022-12-25T13:19:29.089Z,11.40
2022-12-25T13:22:00.355Z,11.40
2022-12-25T13:24:31.816Z,11.40
2022-12-25T13:27:04.451Z,11.30
2022-12-25T13:29:34.932Z,11.30
2022-12-25T13:32:06.237Z,11.20
2022-12-25T13:34:37.528Z,11.20
2022-12-25T13:37:10.175Z,11.20
2022-12-25T13:39:46.823Z,11.20
2022-12-25T13:42:17.610Z,11.20
2022-12-25T13:44:52.436Z,11.20
2022-12-25T13:47:27.552Z,11.10
2022-12-25T13:50:00.631Z,11.20
2022-12-25T13:52:35.691Z,11.20
2022-12-25T13:55:14.411Z,11.20
2022-12-25T13:57:46.485Z,11.10
2022-12-25T14:00:22.983Z,11.10
2022-12-25T14:02:52.306Z,11.00
2022-12-25T14:05:34.717Z,11.00
2022-12-25T14:08:21.618Z,11.10
2022-12-25T14:10:55.090Z,11.10
2022-12-25T14:13:31.044Z,11.00
2022-12-25T14:16:00.282Z,11.10
2022-12-25T14:18:30.747Z,11.00
2022-12-25T14:21:03.006Z,11.10
2022-12-25T14:23:43.228Z,11.10
2022-12-25T14:26:20.617Z,11.10
2022-12-25T14:28:54.061Z,11.10
2022-12-25T14:31:25.167Z,11.10
2022-12-25T14:33:54.244Z,11.10
2022-12-25T14:36:23.157Z,11.00
2022-12-25T14:38:58.967Z,11.00
2022-12-25T14:41:38.093Z,11.10
2022-12-25T14:44:32.775Z,11.20
2022-12-25T14:47:19.906Z,11.10
2022-12-25T14:49:49.047Z,11.10
2022-12-25T14:52:20.559Z,11.20
2022-12-25T14:54:50.983Z,11.10
2022-12-25T14:57:25.929Z,11.20
2022-12-25T15:00:03.600Z,11.10
2022-12-25T15:02:41.634Z,11.10
2022-12-25T15:05:26.042Z,11.10
2022-12-25T15:08:06.396Z,11.10
2022-12-25T15:13:27.687Z,11.10
2022-12-25T15:16:01.199Z,11.10
2022-12-25T15:18:35.285Z,11.00
2022-12-25T15:21:03.647Z,11.00
2022-12-25T15:23:34.801Z,10.90
2022-12-25T15:26:03.020Z,10.90
2022-12-25T15:28:32.470Z,10.90
2022-12-25T15:31:00.596Z,11.00
2022-12-25T15:33:31.581Z,11.00
2022-12-25T15:35:59.668Z,10.90
2022-12-25T15:38:27.624Z,10.70
2022-12-25T15:40:57.144Z,10.60
2022-12-25T15:43:41.563Z,10.50
2022-12-25T15:46:11.610Z,10.50
2022-12-25T15:48:39.545Z,10.50
2022-12-25T15:51:07.871Z,10.50
2022-12-25T15:53:36.097Z,10.60
2022-12-25T15:56:05.888Z,10.60
2022-12-25T15:58:33.802Z,10.70
2022-12-25T16:01:01.952Z,10.80
2022-12-25T16:03:31.742Z,10.70
2022-12-25T16:06:02.995Z,10.80
2022-12-25T16:08:31.310Z,10.80
2022-12-25T16:11:01.095Z,10.90
2022-12-25T16:13:29.197Z,11.00
2022-12-25T16:15:57.317Z,11.00
2022-12-25T16:18:25.419Z,11.00
2022-12-25T16:20:56.159Z,11.10
2022-12-25T16:23:24.319Z,11.10
2022-12-25T16:25:52.670Z,11.00
2022-12-25T16:28:20.885Z,10.90
2022-12-25T16:30:51.783Z,11.10
2022-12-25T16:33:19.755Z,11.00
2022-12-25T16:35:48.117Z,11.00
2022-12-25T16:38:18.755Z,11.00
2022-12-25T16:40:48.613Z,11.00
2022-12-25T16:43:23.770Z,11.00
2022-12-25T16:45:58.190Z,11.10
2022-12-25T16:48:26.237Z,11.00
2022-12-25T16:50:54.166Z,10.90
2022-12-25T16:53:23.511Z,11.00
2022-12-25T16:55:52.014Z,11.00
2022-12-25T16:58:21.663Z,11.00
2022-12-25T17:00:49.840Z,11.20
2022-12-25T17:03:24.655Z,11.10
2022-12-25T17:05:52.677Z,11.30
2022-12-25T17:08:20.748Z,11.40
2022-12-25T17:10:50.113Z,11.30
2022-12-25T17:13:25.831Z,11.40
2022-12-25T17:15:54.967Z,11.40
2022-12-25T17:18:22.842Z,11.40
2022-12-25T17:20:51.949Z,11.30
2022-12-25T17:23:25.184Z,11.30
2022-12-25T17:25:54.688Z,11.40
2022-12-25T17:28:24.497Z,11.40
2022-12-25T17:30:52.859Z,11.30
2022-12-25T17:33:23.732Z,11.30
2022-12-25T17:35:51.716Z,11.30
2022-12-25T17:38:19.931Z,11.20
2022-12-25T17:40:56.696Z,11.10
2022-12-25T17:43:27.436Z,10.90
2022-12-25T17:45:55.287Z,10.80
2022-12-25T17:48:23.992Z,10.80
2022-12-25T17:50:51.897Z,10.70
2022-12-25T17:53:21.890Z,10.70
2022-12-25T17:55:50.121Z,10.60
2022-12-25T17:58:19.652Z,10.60
2022-12-25T18:00:47.694Z,10.50
2022-12-25T18:03:15.929Z,10.60
2022-12-25T18:05:44.779Z,10.60
2022-12-25T18:08:13.020Z,10.60
2022-12-25T18:10:43.338Z,10.50
2022-12-25T18:13:11.819Z,10.50
2022-12-25T18:15:45.246Z,10.40
2022-12-25T18:18:16.262Z,10.20
2022-12-25T18:20:44.662Z,10.10
2022-12-25T18:23:17.377Z,10.10
2022-12-25T18:25:46.046Z,10.10
2022-12-25T18:28:19.411Z,10.10
2022-12-25T18:30:48.912Z,10.00
2022-12-25T18:33:17.387Z,9.90
2022-12-25T18:35:46.856Z,9.90
2022-12-25T18:38:15.363Z,10.00
2022-12-25T18:40:46.679Z,10.10
2022-12-25T18:43:18.035Z,10.20
2022-12-25T18:45:46.408Z,10.20
2022-12-25T18:48:19.353Z,10.30
2022-12-25T18:50:58.637Z,10.30
2022-12-25T18:53:28.611Z,10.20
2022-12-25T18:56:03.861Z,10.30
2022-12-25T18:58:32.211Z,10.30
2022-12-25T19:01:00.237Z,10.40
2022-12-25T19:03:29.959Z,10.40
2022-12-25T19:06:00.973Z,10.30
2022-12-25T19:08:29.196Z,10.30
2022-12-25T19:10:57.235Z,10.20
2022-12-25T19:13:25.628Z,10.00
2022-12-25T19:16:01.006Z,10.10
2022-12-25T19:18:31.741Z,10.20
2022-12-25T19:21:03.626Z,10.30
2022-12-25T19:23:32.132Z,10.30
2022-12-25T19:26:02.487Z,10.30
2022-12-25T19:28:31.056Z,10.50
2022-12-25T19:31:00.932Z,10.50
2022-12-25T19:33:34.284Z,10.50
2022-12-25T19:36:07.168Z,10.60
2022-12-25T19:38:35.447Z,10.50
2022-12-25T19:41:07.348Z,10.50
2022-12-25T19:43:38.059Z,10.40
2022-12-25T19:46:07.795Z,10.50
2022-12-25T19:48:37.581Z,10.50
2022-12-25T19:51:05.804Z,10.50
2022-12-25T19:53:35.759Z,10.40
2022-12-25T19:56:04.452Z,10.30
2022-12-25T19:58:32.577Z,10.20
2022-12-25T20:01:01.984Z,10.20
2022-12-25T20:03:31.885Z,10.20
2022-12-25T20:06:11.199Z,10.20
2022-12-25T20:08:42.429Z,10.30
2022-12-25T20:11:10.581Z,10.30
2022-12-25T20:13:38.920Z,10.40
2022-12-25T20:16:10.989Z,10.30
2022-12-25T20:18:43.014Z,10.20
2022-12-25T20:21:15.973Z,10.20
2022-12-25T20:23:51.463Z,10.10
2022-12-25T20:26:21.707Z,10.10
2022-12-25T20:28:56.590Z,10.00
2022-12-25T20:31:27.893Z,9.90
2022-12-25T20:33:59.982Z,9.90
2022-12-25T20:36:36.120Z,10.10
2022-12-25T20:39:05.899Z,10.20
2022-12-25T20:41:34.029Z,10.50
2022-12-25T20:44:04.102Z,10.70
2022-12-25T20:46:32.231Z,10.90
2022-12-25T20:49:02.290Z,10.90
2022-12-25T20:51:35.057Z,10.80
2022-12-25T20:54:07.459Z,11.00
2022-12-25T20:56:35.990Z,11.00
2022-12-25T20:59:04.542Z,10.90
2022-12-25T21:01:32.989Z,10.90
2022-12-25T21:04:01.331Z,11.00
2022-12-25T21:06:33.411Z,11.30
2022-12-25T21:09:01.808Z,11.40
2022-12-25T21:11:31.309Z,11.40
2022-12-25T21:13:59.709Z,11.30
2022-12-25T21:16:28.571Z,11.30
2022-12-25T21:19:01.467Z,11.40
2022-12-25T21:21:31.188Z,11.50
2022-12-25T21:24:01.777Z,11.70
2022-12-25T21:26:31.402Z,11.70
2022-12-25T21:29:02.103Z,11.60
2022-12-25T21:31:30.601Z,11.60
2022-12-25T21:33:58.349Z,11.60
2022-12-25T21:36:29.866Z,11.60
2022-12-25T21:39:01.975Z,11.60
2022-12-25T21:41:32.430Z,11.70
2022-12-25T21:44:05.881Z,11.80
2022-12-25T21:46:34.003Z,11.90
2022-12-25T21:49:02.647Z,11.80
2022-12-25T21:51:50.816Z,11.70
2022-12-25T21:54:22.170Z,11.70
2022-12-25T21:56:51.017Z,11.70
2022-12-25T21:59:21.424Z,11.70
2022-12-25T22:01:51.608Z,11.70
2022-12-25T22:04:22.240Z,11.70
2022-12-25T22:07:08.430Z,11.70
2022-12-25T22:09:38.903Z,11.60
2022-12-25T22:12:30.203Z,11.50
2022-12-25T22:15:06.642Z,11.60
2022-12-25T22:17:54.378Z,11.60
2022-12-25T22:20:27.708Z,11.60
2022-12-25T22:22:56.135Z,11.50
2022-12-25T22:25:26.049Z,11.50
2022-12-25T22:27:54.701Z,11.50
2022-12-25T22:30:26.913Z,11.50
2022-12-25T22:32:55.862Z,11.50
2022-12-25T22:35:27.190Z,11.50
2022-12-25T22:37:55.695Z,11.40
2022-12-25T22:40:24.959Z,11.40
2022-12-25T22:42:55.706Z,11.40
2022-12-25T22:45:24.442Z,11.40
2022-12-25T22:47:54.553Z,11.40
2022-12-25T22:50:23.968Z,11.40
2022-12-25T22:52:52.123Z,11.40
2022-12-25T22:55:20.792Z,11.40
2022-12-25T22:57:50.443Z,11.50
2022-12-25T23:00:18.657Z,11.50
2022-12-25T23:02:46.851Z,11.50
2022-12-25T23:05:15.389Z,11.50
2022-12-25T23:07:43.440Z,11.50
2022-12-25T23:10:12.012Z,11.60
2022-12-25T23:13:00.768Z,11.60
2022-12-25T23:15:32.497Z,11.60
2022-12-25T23:18:17.356Z,11.60
2022-12-25T23:21:04.729Z,11.60
2022-12-25T23:23:50.502Z,11.60
2022-12-25T23:26:20.278Z,11.60
2022-12-25T23:29:09.263Z,11.70
2022-12-25T23:31:41.372Z,11.70
2022-12-25T23:34:10.466Z,11.70
2022-12-25T23:36:38.547Z,11.90
2022-12-25T23:39:09.952Z,11.90
2022-12-25T23:41:38.856Z,11.80
2022-12-25T23:44:08.400Z,11.80
2022-12-25T23:46:37.983Z,11.80
2022-12-25T23:49:06.874Z,11.70
2022-12-25T23:51:39.595Z,11.80
2022-12-25T23:54:08.832Z,11.80
2022-12-25T23:56:37.317Z,11.70
2022-12-25T23:59:05.765Z,11.80
